MSC294 HECA-HEGN
Flight info
| Callsign | MSC294 |
|---|---|
| Flight time | 0h 41m |
| Altitude | 27000 |
| Route | CVO L315 HGD |
| Aircraft | A320/M-SDE3FGHIRWY/LB1 |
Departure
| Time | 2026-05-07 20:14 |
|---|---|
| Airport | Cairo International Airport (HECA) |
Arrival
| Time | 2026-05-07 20:56 |
|---|---|
| Airport | Hurghada International Airport (HEGN) |
| Time | Latitude | Longitude | Altitude | Speed | Heading |
|---|---|---|---|---|---|
| 2026-05-07 19:53 | 30.10732 | 31.39345 | 374 ft | 0 kts | 256° |
| 2026-05-07 19:58 | 30.10732 | 31.39346 | 374 ft | 0 kts | 256° |
| 2026-05-07 20:07 | 30.10733 | 31.39351 | 374 ft | 3 kts | 256° |
| 2026-05-07 20:07 | 30.10741 | 31.39381 | 374 ft | 4 kts | 251° |
| 2026-05-07 20:07 | 30.10751 | 31.39410 | 374 ft | 4 kts | 242° |
| 2026-05-07 20:07 | 30.10766 | 31.39434 | 374 ft | 4 kts | 207° |
| 2026-05-07 20:08 | 30.10780 | 31.39437 | 374 ft | 1 kts | 165° |
| 2026-05-07 20:08 | 30.10783 | 31.39437 | 374 ft | 2 kts | 165° |
| 2026-05-07 20:10 | 30.10759 | 31.39444 | 374 ft | 9 kts | 165° |
| 2026-05-07 20:10 | 30.10676 | 31.39469 | 374 ft | 13 kts | 165° |
| 2026-05-07 20:10 | 30.10593 | 31.39493 | 374 ft | 12 kts | 165° |
| 2026-05-07 20:10 | 30.10519 | 31.39535 | 374 ft | 12 kts | 116° |
| 2026-05-07 20:11 | 30.10536 | 31.39639 | 374 ft | 15 kts | 74° |
| 2026-05-07 20:11 | 30.10532 | 31.39752 | 374 ft | 15 kts | 148° |
| 2026-05-07 20:11 | 30.10435 | 31.39783 | 374 ft | 14 kts | 165° |
| 2026-05-07 20:11 | 30.10350 | 31.39783 | 374 ft | 12 kts | 223° |
| 2026-05-07 20:12 | 30.10295 | 31.39708 | 374 ft | 12 kts | 230° |
| 2026-05-07 20:12 | 30.10229 | 31.39622 | 374 ft | 18 kts | 230° |
| 2026-05-07 20:12 | 30.10138 | 31.39584 | 374 ft | 14 kts | 146° |
| 2026-05-07 20:12 | 30.10063 | 31.39658 | 374 ft | 13 kts | 139° |
| 2026-05-07 20:13 | 30.10004 | 31.39744 | 374 ft | 14 kts | 104° |
| 2026-05-07 20:13 | 30.10010 | 31.39864 | 372 ft | 17 kts | 82° |
| 2026-05-07 20:13 | 30.10084 | 31.39981 | 370 ft | 20 kts | 49° |
| 2026-05-07 20:13 | 30.10272 | 31.40228 | 374 ft | 73 kts | 49° |
| 2026-05-07 20:14 | 30.10741 | 31.40849 | 372 ft | 130 kts | 49° |
| 2026-05-07 20:14 | 30.11400 | 31.41739 | 727 ft | 145 kts | 47° |
| 2026-05-07 20:14 | 30.12014 | 31.42636 | 1436 ft | 145 kts | 60° |
| 2026-05-07 20:14 | 30.12090 | 31.43808 | 2067 ft | 158 kts | 103° |
| 2026-05-07 20:15 | 30.11334 | 31.44877 | 2340 ft | 194 kts | 144° |
| 2026-05-07 20:15 | 30.09934 | 31.45327 | 2598 ft | 226 kts | 170° |
| 2026-05-07 20:15 | 30.08272 | 31.45430 | 3030 ft | 252 kts | 174° |
| 2026-05-07 20:15 | 30.06435 | 31.45492 | 3541 ft | 274 kts | 175° |
| 2026-05-07 20:16 | 30.04502 | 31.45576 | 4327 ft | 282 kts | 175° |
| 2026-05-07 20:16 | 30.02522 | 31.45698 | 5190 ft | 288 kts | 175° |
| 2026-05-07 20:16 | 30.00574 | 31.46216 | 5966 ft | 291 kts | 150° |
| 2026-05-07 20:16 | 29.98910 | 31.47554 | 6821 ft | 293 kts | 141° |
| 2026-05-07 20:17 | 29.97278 | 31.48989 | 7624 ft | 298 kts | 141° |
| 2026-05-07 20:17 | 29.95615 | 31.50441 | 8417 ft | 303 kts | 142° |
| 2026-05-07 20:17 | 29.93915 | 31.51914 | 9248 ft | 307 kts | 142° |
| 2026-05-07 20:17 | 29.92195 | 31.53394 | 10061 ft | 311 kts | 143° |
| 2026-05-07 20:18 | 29.90423 | 31.54913 | 10528 ft | 328 kts | 143° |
| 2026-05-07 20:18 | 29.88527 | 31.56530 | 10770 ft | 351 kts | 143° |
| 2026-05-07 20:18 | 29.86508 | 31.58246 | 11163 ft | 366 kts | 143° |
| 2026-05-07 20:18 | 29.84440 | 31.60001 | 11822 ft | 372 kts | 143° |
| 2026-05-07 20:19 | 29.82347 | 31.61773 | 12538 ft | 375 kts | 143° |
| 2026-05-07 20:19 | 29.80241 | 31.63557 | 13276 ft | 378 kts | 143° |
| 2026-05-07 20:19 | 29.78112 | 31.65363 | 13968 ft | 382 kts | 142° |
| 2026-05-07 20:19 | 29.75964 | 31.67191 | 14579 ft | 385 kts | 142° |
| 2026-05-07 20:20 | 29.73805 | 31.69031 | 15208 ft | 388 kts | 142° |
| 2026-05-07 20:20 | 29.71628 | 31.70886 | 15828 ft | 391 kts | 142° |
| 2026-05-07 20:20 | 29.69427 | 31.72761 | 16451 ft | 395 kts | 142° |
| 2026-05-07 20:20 | 29.67208 | 31.74644 | 17064 ft | 399 kts | 143° |
| 2026-05-07 20:21 | 29.64965 | 31.76540 | 17677 ft | 402 kts | 143° |
| 2026-05-07 20:21 | 29.62668 | 31.78478 | 18307 ft | 406 kts | 143° |
| 2026-05-07 20:21 | 29.60380 | 31.80406 | 18853 ft | 410 kts | 143° |
| 2026-05-07 20:21 | 29.58073 | 31.82352 | 19382 ft | 413 kts | 143° |
| 2026-05-07 20:22 | 29.55749 | 31.84314 | 19917 ft | 417 kts | 143° |
| 2026-05-07 20:22 | 29.53404 | 31.86292 | 20467 ft | 420 kts | 143° |
| 2026-05-07 20:22 | 29.51038 | 31.88286 | 21003 ft | 424 kts | 143° |
| 2026-05-07 20:22 | 29.48654 | 31.90297 | 21539 ft | 427 kts | 143° |
| 2026-05-07 20:23 | 29.46248 | 31.92329 | 22069 ft | 430 kts | 143° |
| 2026-05-07 20:23 | 29.43832 | 31.94368 | 22601 ft | 433 kts | 143° |
| 2026-05-07 20:23 | 29.41395 | 31.96421 | 23091 ft | 436 kts | 143° |
| 2026-05-07 20:23 | 29.38939 | 31.98486 | 23571 ft | 439 kts | 143° |
| 2026-05-07 20:24 | 29.36465 | 32.00564 | 23992 ft | 443 kts | 143° |
| 2026-05-07 20:24 | 29.33973 | 32.02656 | 24380 ft | 445 kts | 143° |
| 2026-05-07 20:24 | 29.31467 | 32.04758 | 24764 ft | 448 kts | 143° |
| 2026-05-07 20:24 | 29.28938 | 32.06881 | 25138 ft | 451 kts | 143° |
| 2026-05-07 20:25 | 29.26410 | 32.09005 | 25498 ft | 454 kts | 143° |
| 2026-05-07 20:25 | 29.23850 | 32.11155 | 25850 ft | 457 kts | 143° |
| 2026-05-07 20:25 | 29.21284 | 32.13308 | 26208 ft | 459 kts | 143° |
| 2026-05-07 20:25 | 29.18704 | 32.15468 | 26561 ft | 462 kts | 143° |
| 2026-05-07 20:26 | 29.16095 | 32.17648 | 26887 ft | 465 kts | 143° |
| 2026-05-07 20:26 | 29.13472 | 32.19836 | 27059 ft | 466 kts | 143° |
| 2026-05-07 20:26 | 29.10870 | 32.22008 | 27083 ft | 461 kts | 143° |
| 2026-05-07 20:26 | 29.08294 | 32.24162 | 27078 ft | 459 kts | 143° |
| 2026-05-07 20:27 | 29.05719 | 32.26312 | 27078 ft | 458 kts | 143° |
| 2026-05-07 20:27 | 29.03143 | 32.28460 | 27083 ft | 458 kts | 143° |
| 2026-05-07 20:27 | 29.00567 | 32.30606 | 27076 ft | 458 kts | 143° |
| 2026-05-07 20:27 | 28.97991 | 32.32751 | 27084 ft | 458 kts | 143° |
| 2026-05-07 20:28 | 28.95422 | 32.34889 | 27080 ft | 458 kts | 143° |
| 2026-05-07 20:28 | 28.92844 | 32.37034 | 27075 ft | 458 kts | 143° |
| 2026-05-07 20:28 | 28.90268 | 32.39176 | 27071 ft | 458 kts | 143° |
| 2026-05-07 20:28 | 28.87690 | 32.41317 | 27075 ft | 458 kts | 143° |
| 2026-05-07 20:29 | 28.85112 | 32.43459 | 27067 ft | 458 kts | 143° |
| 2026-05-07 20:29 | 28.82505 | 32.45622 | 27068 ft | 458 kts | 143° |
| 2026-05-07 20:29 | 28.79960 | 32.47731 | 27064 ft | 458 kts | 143° |
| 2026-05-07 20:29 | 28.77347 | 32.49898 | 27065 ft | 458 kts | 143° |
| 2026-05-07 20:30 | 28.74768 | 32.52034 | 27065 ft | 458 kts | 143° |
| 2026-05-07 20:30 | 28.72185 | 32.54170 | 27065 ft | 458 kts | 143° |
| 2026-05-07 20:30 | 28.69607 | 32.56299 | 27064 ft | 458 kts | 143° |
| 2026-05-07 20:30 | 28.67026 | 32.58432 | 27058 ft | 458 kts | 143° |
| 2026-05-07 20:31 | 28.64444 | 32.60569 | 27061 ft | 458 kts | 143° |
| 2026-05-07 20:31 | 28.61868 | 32.62700 | 27065 ft | 458 kts | 143° |
| 2026-05-07 20:31 | 28.59283 | 32.64834 | 27049 ft | 458 kts | 143° |
| 2026-05-07 20:31 | 28.56704 | 32.66962 | 27047 ft | 458 kts | 143° |
| 2026-05-07 20:32 | 28.54121 | 32.69092 | 27046 ft | 459 kts | 143° |
| 2026-05-07 20:32 | 28.51538 | 32.71220 | 27045 ft | 459 kts | 143° |
| 2026-05-07 20:32 | 28.48952 | 32.73348 | 27040 ft | 459 kts | 143° |
| 2026-05-07 20:32 | 28.46372 | 32.75465 | 27040 ft | 459 kts | 143° |
| 2026-05-07 20:33 | 28.43781 | 32.77593 | 27043 ft | 459 kts | 143° |
| 2026-05-07 20:33 | 28.41194 | 32.79716 | 27036 ft | 459 kts | 143° |
| 2026-05-07 20:33 | 28.38606 | 32.81838 | 27033 ft | 459 kts | 143° |
| 2026-05-07 20:33 | 28.36023 | 32.83958 | 27042 ft | 459 kts | 143° |
| 2026-05-07 20:34 | 28.33436 | 32.86084 | 27039 ft | 459 kts | 143° |
| 2026-05-07 20:34 | 28.30851 | 32.88209 | 27030 ft | 459 kts | 143° |
| 2026-05-07 20:34 | 28.28267 | 32.90326 | 27032 ft | 459 kts | 143° |
| 2026-05-07 20:34 | 28.25673 | 32.92445 | 27035 ft | 459 kts | 143° |
| 2026-05-07 20:35 | 28.23082 | 32.94561 | 27022 ft | 459 kts | 143° |
| 2026-05-07 20:35 | 28.20491 | 32.96678 | 27021 ft | 459 kts | 143° |
| 2026-05-07 20:35 | 28.17901 | 32.98795 | 27025 ft | 459 kts | 143° |
| 2026-05-07 20:35 | 28.15277 | 33.00940 | 27017 ft | 459 kts | 143° |
| 2026-05-07 20:36 | 28.12684 | 33.03058 | 27016 ft | 459 kts | 143° |
| 2026-05-07 20:36 | 28.10970 | 33.04457 | 27023 ft | 459 kts | 143° |
| 2026-05-07 20:36 | 28.08377 | 33.06570 | 27017 ft | 459 kts | 143° |
| 2026-05-07 20:36 | 28.05781 | 33.08683 | 27013 ft | 459 kts | 143° |
| 2026-05-07 20:37 | 28.03186 | 33.10796 | 27006 ft | 459 kts | 143° |
| 2026-05-07 20:37 | 28.00594 | 33.12904 | 27010 ft | 459 kts | 143° |
| 2026-05-07 20:37 | 27.97997 | 33.15016 | 26942 ft | 460 kts | 143° |
| 2026-05-07 20:37 | 27.95407 | 33.17120 | 26681 ft | 457 kts | 143° |
| 2026-05-07 20:38 | 27.92827 | 33.19216 | 26433 ft | 455 kts | 143° |
| 2026-05-07 20:38 | 27.90270 | 33.21296 | 26008 ft | 451 kts | 143° |
| 2026-05-07 20:38 | 27.87719 | 33.23367 | 25359 ft | 450 kts | 143° |
| 2026-05-07 20:38 | 27.85242 | 33.25374 | 24747 ft | 447 kts | 143° |
| 2026-05-07 20:39 | 27.82713 | 33.27420 | 24142 ft | 445 kts | 144° |
| 2026-05-07 20:39 | 27.80205 | 33.29450 | 23538 ft | 443 kts | 143° |
| 2026-05-07 20:39 | 27.77707 | 33.31471 | 22911 ft | 439 kts | 144° |
| 2026-05-07 20:39 | 27.75234 | 33.33472 | 22368 ft | 435 kts | 144° |
| 2026-05-07 20:40 | 27.72756 | 33.35474 | 21847 ft | 430 kts | 144° |
| 2026-05-07 20:40 | 27.70363 | 33.37404 | 21330 ft | 427 kts | 144° |
| 2026-05-07 20:40 | 27.67928 | 33.39369 | 20818 ft | 423 kts | 144° |
| 2026-05-07 20:40 | 27.65542 | 33.41294 | 20303 ft | 420 kts | 144° |
| 2026-05-07 20:41 | 27.63173 | 33.43211 | 19780 ft | 418 kts | 144° |
| 2026-05-07 20:41 | 27.60822 | 33.45114 | 19255 ft | 416 kts | 144° |
| 2026-05-07 20:41 | 27.58473 | 33.47013 | 18716 ft | 414 kts | 144° |
| 2026-05-07 20:41 | 27.56140 | 33.48893 | 18155 ft | 413 kts | 145° |
| 2026-05-07 20:42 | 27.53802 | 33.50775 | 17575 ft | 411 kts | 145° |
| 2026-05-07 20:42 | 27.51417 | 33.52519 | 17046 ft | 407 kts | 153° |
| 2026-05-07 20:42 | 27.48855 | 33.53828 | 16524 ft | 403 kts | 158° |
| 2026-05-07 20:42 | 27.46288 | 33.55070 | 16000 ft | 400 kts | 158° |
| 2026-05-07 20:43 | 27.43740 | 33.56304 | 15462 ft | 397 kts | 158° |
| 2026-05-07 20:43 | 27.41207 | 33.57532 | 14952 ft | 395 kts | 158° |
| 2026-05-07 20:43 | 27.38698 | 33.58751 | 14443 ft | 392 kts | 158° |
| 2026-05-07 20:43 | 27.36190 | 33.59966 | 13923 ft | 390 kts | 159° |
| 2026-05-07 20:44 | 27.33623 | 33.60873 | 13365 ft | 386 kts | 166° |
| 2026-05-07 20:44 | 27.31045 | 33.61642 | 12830 ft | 378 kts | 166° |
| 2026-05-07 20:44 | 27.28536 | 33.62389 | 12316 ft | 370 kts | 166° |
| 2026-05-07 20:44 | 27.26056 | 33.63123 | 11802 ft | 368 kts | 166° |
| 2026-05-07 20:45 | 27.23588 | 33.63853 | 11275 ft | 365 kts | 166° |
| 2026-05-07 20:45 | 27.21149 | 33.64576 | 10866 ft | 359 kts | 166° |
| 2026-05-07 20:45 | 27.18730 | 33.65296 | 10413 ft | 356 kts | 166° |
| 2026-05-07 20:45 | 27.16380 | 33.65996 | 10295 ft | 342 kts | 166° |
| 2026-05-07 20:46 | 27.14123 | 33.66668 | 10183 ft | 329 kts | 166° |
| 2026-05-07 20:46 | 27.11947 | 33.67318 | 10057 ft | 318 kts | 166° |
| 2026-05-07 20:46 | 27.09842 | 33.67942 | 9839 ft | 311 kts | 166° |
| 2026-05-07 20:46 | 27.07751 | 33.68558 | 9448 ft | 309 kts | 166° |
| 2026-05-07 20:47 | 27.05672 | 33.69170 | 8901 ft | 307 kts | 166° |
| 2026-05-07 20:47 | 27.03619 | 33.69775 | 8455 ft | 295 kts | 166° |
| 2026-05-07 20:47 | 27.01670 | 33.70351 | 8064 ft | 285 kts | 165° |
| 2026-05-07 20:47 | 26.99756 | 33.70916 | 7669 ft | 285 kts | 165° |
| 2026-05-07 20:48 | 26.97846 | 33.71479 | 7276 ft | 284 kts | 165° |
| 2026-05-07 20:48 | 26.95942 | 33.72039 | 6882 ft | 281 kts | 165° |
| 2026-05-07 20:48 | 26.94194 | 33.72905 | 6505 ft | 272 kts | 139° |
| 2026-05-07 20:48 | 26.93092 | 33.74551 | 6125 ft | 262 kts | 108° |
| 2026-05-07 20:49 | 26.92870 | 33.76515 | 5724 ft | 252 kts | 79° |
| 2026-05-07 20:49 | 26.93498 | 33.78294 | 5336 ft | 244 kts | 54° |
| 2026-05-07 20:49 | 26.94462 | 33.79831 | 4959 ft | 239 kts | 53° |
| 2026-05-07 20:49 | 26.95398 | 33.81328 | 4590 ft | 230 kts | 53° |
| 2026-05-07 20:50 | 26.96297 | 33.82770 | 4236 ft | 222 kts | 52° |
| 2026-05-07 20:50 | 26.97271 | 33.84050 | 3897 ft | 210 kts | 32° |
| 2026-05-07 20:50 | 26.98575 | 33.84607 | 3587 ft | 197 kts | 1° |
| 2026-05-07 20:50 | 26.99868 | 33.84402 | 3381 ft | 182 kts | 345° |
| 2026-05-07 20:51 | 27.01058 | 33.84049 | 3114 ft | 173 kts | 345° |
| 2026-05-07 20:51 | 27.02195 | 33.83715 | 2871 ft | 161 kts | 344° |
| 2026-05-07 20:51 | 27.03209 | 33.83421 | 2679 ft | 144 kts | 343° |
| 2026-05-07 20:51 | 27.04154 | 33.83146 | 2489 ft | 138 kts | 342° |
| 2026-05-07 20:52 | 27.05072 | 33.82876 | 2304 ft | 136 kts | 342° |
| 2026-05-07 20:52 | 27.05979 | 33.82608 | 2120 ft | 134 kts | 341° |
| 2026-05-07 20:52 | 27.06884 | 33.82341 | 1940 ft | 134 kts | 341° |
| 2026-05-07 20:52 | 27.07787 | 33.82074 | 1776 ft | 134 kts | 342° |
| 2026-05-07 20:53 | 27.08686 | 33.81809 | 1579 ft | 134 kts | 342° |
| 2026-05-07 20:53 | 27.09586 | 33.81544 | 1414 ft | 134 kts | 340° |
| 2026-05-07 20:53 | 27.10490 | 33.81279 | 1230 ft | 133 kts | 342° |
| 2026-05-07 20:53 | 27.11385 | 33.81017 | 1055 ft | 133 kts | 340° |
| 2026-05-07 20:54 | 27.12282 | 33.80755 | 881 ft | 133 kts | 342° |
| 2026-05-07 20:54 | 27.13187 | 33.80484 | 703 ft | 134 kts | 343° |
| 2026-05-07 20:54 | 27.14089 | 33.80216 | 508 ft | 135 kts | 341° |
| 2026-05-07 20:54 | 27.15001 | 33.79955 | 357 ft | 135 kts | 342° |
| 2026-05-07 20:55 | 27.15915 | 33.79680 | 161 ft | 136 kts | 342° |
| 2026-05-07 20:55 | 27.16764 | 33.79429 | 113 ft | 108 kts | 345° |
| 2026-05-07 20:55 | 27.17408 | 33.79238 | 100 ft | 85 kts | 346° |
| 2026-05-07 20:55 | 27.17929 | 33.79085 | 101 ft | 68 kts | 345° |
| 2026-05-07 20:56 | 27.18327 | 33.78998 | 101 ft | 50 kts | 5° |
| 2026-05-07 20:56 | 27.18619 | 33.79070 | 96 ft | 36 kts | 359° |
| 2026-05-07 20:56 | 27.18853 | 33.79009 | 89 ft | 31 kts | 344° |
| 2026-05-07 20:56 | 27.18943 | 33.79094 | 84 ft | 19 kts | 82° |
| 2026-05-07 20:57 | 27.18991 | 33.79250 | 68 ft | 24 kts | 75° |
| 2026-05-07 20:57 | 27.19039 | 33.79452 | 60 ft | 30 kts | 74° |
| 2026-05-07 20:57 | 27.19099 | 33.79692 | 61 ft | 32 kts | 76° |
| 2026-05-07 20:57 | 27.19156 | 33.79938 | 58 ft | 33 kts | 75° |
| 2026-05-07 20:58 | 27.19154 | 33.80070 | 55 ft | 8 kts | 173° |
| 2026-05-07 20:58 | 27.19085 | 33.80073 | 52 ft | 13 kts | 163° |
| 2026-05-07 20:58 | 27.19003 | 33.80100 | 53 ft | 12 kts | 165° |
| 2026-05-07 20:58 | 27.18894 | 33.80132 | 53 ft | 18 kts | 165° |
| 2026-05-07 20:59 | 27.18802 | 33.80159 | 56 ft | 9 kts | 165° |
| 2026-05-07 20:59 | 27.18787 | 33.80208 | 58 ft | 7 kts | 75° |
| 2026-05-07 20:59 | 27.18799 | 33.80256 | 54 ft | 5 kts | 75° |
| 2026-05-07 20:59 | 27.18802 | 33.80268 | 56 ft | 0 kts | 75° |
| 2026-05-07 21:09 | 27.18802 | 33.80267 | 58 ft | 0 kts | 75° |